Aviation Digital Data Service (ADDS)

Output produced by METARs form (1906 UTC 22 May 2015)
found at http://aviationweather.gov/adds/metars/
 
KIAG 221729Z 2218/2318 33008KT P6SM FEW030 SCT070 
     FM222000 32011G18KT P6SM FEW250 
     FM230200 33007KT P6SM SKC 
     FM230500 VRB03KT P6SM SKC 
     FM230800 22004KT P6SM SKC 
     FM231400 23008KT P6SM FEW250 
     FM231700 23012KT P6SM FEW250